Αναφορές METAR Αεροδρομίων

 

LGTS - THESSALONIKI - GREECE
Ενημερώθηκε: 21/11/2018 05:20
Ασθενής βροχή, Μερικώς νεφελώδης
Ασθενής βροχή, Μερικώς νεφελώδης
 Ανεμος από Δ
Ανεμος: Δ 9 km/h
Θερμοκρασία: 15°C
Σημείο Δρόσου: 13°C
Υγρασία: 88%
Βαρόμετρο: 1008 hPa
Περίληψη: Ασθενής βροχή
Clouds: Μερικώς νεφελώδης
Visibility: 7 km
Cloud details: Μερικώς νεφελώδης 152 m
Αραιές Νεφώσεις 549 m
Μερικώς νεφελώδης 610 m
2018/11/21 03:20 LGTS 210320Z 27005KT 7000 -RA SCT005 FEW018TCU SCT020 15/13 Q1008 NOSIG
LGLR - LARTISA - GREECE
Ενημερώθηκε: 21/11/2018 03:50
NOT Current
Light thunderstorm, Βροχή, Συννεφιά
Light thunderstorm, Βροχή, Συννεφιά
 Ανεμος από calm
Ανεμος: Απνοια
Θερμοκρασία: 13°C
Σημείο Δρόσου: 13°C
Υγρασία: 100%
Βαρόμετρο: 1011 hPa
Περίληψη: Light thunderstorm, Βροχή
Clouds: Συννεφιά
Visibility: 3 km
Cloud details: Αραιές Νεφώσεις 549 m
Μερικώς νεφελώδης 914 m
Συννεφιά 2438 m
2018/11/21 01:50 LGLR 210150Z 00000KT 3000 -TSRA FEW018CB SCT030 OVC080 13/13 Q1011 RMK CB OVER STATION YLO
 
LGKZ - KOZANI - GREECE
Ενημερώθηκε: 20/11/2018 13:50
NOT Current
Σχεδόν νεφελώδης
Σχεδόν νεφελώδης
 Ανεμος από calm
Ανεμος: Απνοια
Θερμοκρασία: 13°C
Σημείο Δρόσου: 10°C
Υγρασία: 82%
Βαρόμετρο: 1016 hPa
Clouds: Σχεδόν νεφελώδης
Visibility: 10 km
Cloud details: Αραιές Νεφώσεις 152 m
Μερικώς νεφελώδης 610 m
Σχεδόν νεφελώδης 2134 m
2018/11/20 11:50 LGKZ 201150Z 00000KT 9999 FEW005 SCT020 BKN070 13/10 Q1016
LGKV - KAVALA - GREECE
Ενημερώθηκε: 21/11/2018 05:20
Βροχή, Mist, Σχεδόν νεφελώδης
Βροχή, Mist, Σχεδόν νεφελώδης
 Ανεμος από ΒΑ
Ανεμος: ΒΑ 17 km/h
Θερμοκρασία: 13°C
Σημείο Δρόσου: 13°C
Υγρασία: 100%
Βαρόμετρο: 1011 hPa
Περίληψη: Βροχή, Mist
Clouds: Σχεδόν νεφελώδης
Visibility: 5 km
Cloud details: Μερικώς νεφελώδης 244 m
Αραιές Νεφώσεις 457 m
Σχεδόν νεφελώδης 549 m
2018/11/21 03:20 LGKV 210320Z 05009KT 5000 RA BR SCT008 FEW015TCU BKN018 13/13 Q1011
 
LGIO - IOANNINA - GREECE
Ενημερώθηκε: 20/11/2018 19:50
NOT Current
Σχεδόν νεφελώδης
Σχεδόν νεφελώδης
 Ανεμος από varies
Ανεμος: varies 0 km/h
Θερμοκρασία: 14°C
Σημείο Δρόσου: 12°C
Υγρασία: 88%
Βαρόμετρο: 1013 hPa
Clouds: Σχεδόν νεφελώδης
Visibility: 10 km
Cloud details: Μερικώς νεφελώδης 610 m
Μερικώς νεφελώδης 914 m
Σχεδόν νεφελώδης 2134 m
2018/11/20 17:50 LGIO 201750Z /////KT 9999 SCT020 SCT030 BKN070 14/12 Q1013
LGBL - BOLOS - GREECE
Ενημερώθηκε: 21/11/2018 05:20
Σχεδόν νεφελώδης
Σχεδόν νεφελώδης
 Ανεμος από Δ
Ανεμος: Δ 13 km/h
Θερμοκρασία: 12°C
Σημείο Δρόσου: 12°C
Υγρασία: 100%
Βαρόμετρο: 1009 hPa
Clouds: Σχεδόν νεφελώδης
Visibility: 8 km
Cloud details: Αραιές Νεφώσεις 457 m
Αραιές Νεφώσεις 610 m
Μερικώς νεφελώδης 914 m
Σχεδόν νεφελώδης 2438 m
2018/11/21 03:20 LGBL 210320Z 27007KT 8000 FEW015 FEW020TCU SCT030 BKN080 12/12 Q1009
 
LGMT - MITILINI - GREECE
Ενημερώθηκε: 20/11/2018 21:50
NOT Current
Μερικώς νεφελώδης
Μερικώς νεφελώδης
 Ανεμος από Ν
Ανεμος: Ν 17 km/h
Θερμοκρασία: 19°C
Σημείο Δρόσου: 14°C
Υγρασία: 73%
Βαρόμετρο: 1018 hPa
Clouds: Μερικώς νεφελώδης
Visibility: 10 km
Cloud details: Μερικώς νεφελώδης 610 m
2018/11/20 19:50 LGMT 201950Z 19009KT 130V230 9999 SCT020 19/14 Q1018
LGAV - ATHENS - GREECE
Ενημερώθηκε: 21/11/2018 05:20
Nearby thunderstorm, Μερικώς νεφελώδης
Nearby thunderstorm, Μερικώς νεφελώδης
 Ανεμος από varies
Ανεμος: varies 6 km/h
Θερμοκρασία: 15°C
Σημείο Δρόσου: 13°C
Υγρασία: 88%
Βαρόμετρο: 1012 hPa
Περίληψη: Nearby Thunderstorm
Clouds: Μερικώς νεφελώδης
Visibility: 10 km
Cloud details: Αραιές Νεφώσεις 488 m
Μερικώς νεφελώδης 610 m
2018/11/21 03:20 LGAV 210320Z VRB03KT 9999 VCTS FEW016CB SCT020 15/13 Q1012 NOSIG
 
LGRP - RODOS - GREECE
Ενημερώθηκε: 21/11/2018 05:20
Μερικώς νεφελώδης
Μερικώς νεφελώδης
 Ανεμος από Α
Ανεμος: Α 22 km/h
Θερμοκρασία: 20°C
Σημείο Δρόσου: 19°C
Υγρασία: 94%
Βαρόμετρο: 1015 hPa
Clouds: Μερικώς νεφελώδης
Visibility: 10 km
Cloud details: Αραιές Νεφώσεις 549 m
Μερικώς νεφελώδης 762 m
2018/11/21 03:20 LGRP 210320Z 09012KT 060V130 9999 FEW018 SCT025 20/19 Q1015 WS ALL RWY NOSIG
LGIR - HRAKLIO/KRITI - GREECE
Ενημερώθηκε: 21/11/2018 05:20
Σχεδόν νεφελώδης
Σχεδόν νεφελώδης
 Ανεμος από ΝΝΔ
Ανεμος: ΝΝΔ 19 km/h
Θερμοκρασία: 21°C
Σημείο Δρόσου: 16°C
Υγρασία: 73%
Βαρόμετρο: 1014 hPa
Clouds: Σχεδόν νεφελώδης
Visibility: 10 km
Cloud details: Αραιές Νεφώσεις 762 m
Σχεδόν νεφελώδης 2743 m
2018/11/21 03:20 LGIR 210320Z 20010KT 9999 FEW025 BKN090 21/16 Q1014 NOSIG
 
LGMK - MIKONOS - GREECE
Ενημερώθηκε: 20/11/2018 19:50
NOT Current
Αραιές Νεφώσεις
Αραιές Νεφώσεις
 Ανεμος από ΑΝΑ
Ανεμος: ΑΝΑ 24 km/h
Θερμοκρασία: 17°C
Σημείο Δρόσου: 14°C
Υγρασία: 83%
Βαρόμετρο: 1016 hPa
Clouds: Αραιές Νεφώσεις
Visibility: 10 km
Cloud details: Αραιές Νεφώσεις 244 m
2018/11/20 17:50 LGMK 201750Z 12013KT 9999 FEW008 17/14 Q1016
LGKR - KERKIRA - GREECE
Ενημερώθηκε: 21/11/2018 05:20
Μερικώς νεφελώδης
Μερικώς νεφελώδης
 Ανεμος από calm
Ανεμος: Απνοια
Θερμοκρασία: 14°C
Σημείο Δρόσου: 12°C
Υγρασία: 88%
Βαρόμετρο: 1010 hPa
Clouds: Μερικώς νεφελώδης
Visibility: 10 km
Cloud details: Αραιές Νεφώσεις 549 m
Μερικώς νεφελώδης 762 m
2018/11/21 03:20 LGKR 210320Z 00000KT 9999 FEW018 SCT025 14/12 Q1010 NOSIG